createdAt,value
2017-06-19T00:00:15.743Z,19.70
2017-06-19T00:02:43.275Z,19.60
2017-06-19T00:05:11.227Z,19.60
2017-06-19T00:07:38.763Z,19.60
2017-06-19T00:10:06.291Z,19.60
2017-06-19T00:12:34.035Z,19.50
2017-06-19T00:15:01.576Z,19.50
2017-06-19T00:17:29.112Z,19.50
2017-06-19T00:19:56.664Z,19.40
2017-06-19T00:22:24.195Z,19.40
2017-06-19T00:24:51.730Z,19.30
2017-06-19T00:27:19.686Z,19.20
2017-06-19T00:29:47.212Z,19.20
2017-06-19T00:32:14.751Z,19.10
2017-06-19T00:34:42.309Z,19.10
2017-06-19T00:37:09.847Z,19.10
2017-06-19T00:39:37.771Z,19.10
2017-06-19T00:42:05.323Z,19.10
2017-06-19T00:44:32.850Z,19.10
2017-06-19T00:47:00.388Z,19.00
2017-06-19T00:49:28.339Z,19.00
2017-06-19T00:51:55.867Z,19.00
2017-06-19T00:54:23.390Z,19.00
2017-06-19T00:56:50.950Z,18.90
2017-06-19T00:59:18.883Z,18.90
2017-06-19T03:41:22.275Z,17.00
2017-06-19T03:43:50.239Z,17.00
2017-06-19T03:46:18.171Z,17.10
2017-06-19T03:48:45.702Z,17.10
2017-06-19T03:51:13.570Z,17.10
2017-06-19T03:53:41.102Z,17.10
2017-06-19T03:56:09.037Z,17.00
2017-06-19T03:58:36.588Z,17.00
2017-06-19T04:01:04.124Z,17.00
2017-06-19T04:03:31.659Z,17.00
2017-06-19T04:05:59.232Z,17.00
2017-06-19T04:08:26.768Z,17.10
2017-06-19T04:10:54.303Z,17.10
2017-06-19T04:13:21.874Z,17.10
2017-06-19T04:15:49.415Z,17.20
2017-06-19T04:18:16.955Z,17.20
2017-06-19T04:20:44.506Z,17.20
2017-06-19T04:23:12.048Z,17.20
2017-06-19T04:25:39.971Z,17.30
2017-06-19T04:28:07.535Z,17.30
2017-06-19T04:30:35.104Z,17.30
2017-06-19T04:33:02.639Z,17.40
2017-06-19T04:35:30.179Z,17.50
2017-06-19T04:37:57.739Z,17.60
2017-06-19T04:40:25.274Z,17.70
2017-06-19T04:42:52.806Z,17.80
2017-06-19T04:45:20.358Z,17.80
2017-06-19T04:47:47.885Z,17.80
2017-06-19T04:50:15.413Z,17.80
2017-06-19T04:52:43.375Z,17.90
2017-06-19T04:55:10.907Z,17.90
2017-06-19T04:57:38.443Z,18.00
2017-06-19T05:00:06.003Z,18.10
2017-06-19T05:02:33.534Z,18.30
2017-06-19T05:05:01.075Z,18.40
2017-06-19T05:07:28.626Z,18.50
2017-06-19T05:09:56.164Z,18.70
2017-06-19T05:12:23.694Z,18.90
2017-06-19T05:14:51.267Z,19.00
2017-06-19T05:17:18.807Z,19.10
2017-06-19T05:19:46.342Z,19.30
2017-06-19T05:22:14.298Z,19.60
2017-06-19T05:24:41.839Z,19.60
2017-06-19T05:27:09.373Z,19.70
2017-06-19T05:29:36.931Z,19.80
2017-06-19T05:32:04.463Z,19.90
2017-06-19T05:34:31.999Z,20.10
2017-06-19T05:36:59.558Z,20.10
2017-06-19T05:39:27.086Z,20.30
2017-06-19T05:41:54.616Z,20.40
2017-06-19T05:44:22.522Z,20.40
2017-06-19T05:46:50.092Z,20.50
2017-06-19T05:51:51.039Z,20.50
2017-06-19T05:54:18.562Z,20.60
2017-06-19T05:56:46.098Z,20.70
2017-06-19T05:59:13.652Z,20.70
2017-06-19T06:01:42.015Z,20.80
2017-06-19T06:04:09.543Z,20.90
2017-06-19T06:06:37.090Z,21.00
2017-06-19T06:09:04.619Z,21.10
2017-06-19T06:11:32.171Z,21.20
2017-06-19T06:13:59.719Z,21.20
2017-06-19T06:16:27.263Z,21.30
2017-06-19T06:18:54.811Z,21.30
2017-06-19T06:21:22.339Z,21.40
2017-06-19T06:23:50.281Z,21.60
2017-06-19T06:26:17.814Z,21.60
2017-06-19T06:28:45.343Z,21.70
2017-06-19T06:31:12.850Z,21.70
2017-06-19T06:33:40.815Z,21.80
2017-06-19T06:36:08.347Z,21.80
2017-06-19T06:38:35.904Z,21.80
2017-06-19T06:41:03.443Z,21.90
2017-06-19T06:43:31.368Z,22.00
2017-06-19T06:45:58.939Z,22.00
2017-06-19T06:48:26.467Z,22.00
2017-06-19T06:50:53.998Z,22.10
2017-06-19T06:53:21.546Z,22.20
2017-06-19T06:55:49.477Z,22.40
2017-06-19T06:58:17.006Z,22.40
2017-06-19T07:00:44.559Z,22.60
2017-06-19T07:03:12.086Z,22.70
2017-06-19T07:05:39.621Z,22.80
2017-06-19T07:08:07.171Z,22.90
2017-06-19T07:10:34.703Z,22.90
2017-06-19T07:13:02.261Z,23.00
2017-06-19T07:15:29.840Z,23.00
2017-06-19T07:17:57.421Z,23.10
2017-06-19T07:20:24.938Z,23.20
2017-06-19T07:22:52.496Z,23.30
2017-06-19T07:25:20.024Z,23.40
2017-06-19T07:27:47.543Z,23.50
2017-06-19T07:30:15.099Z,23.60
2017-06-19T07:32:42.637Z,23.80
2017-06-19T07:35:10.163Z,23.90
2017-06-19T07:37:37.714Z,23.90
2017-06-19T07:40:05.238Z,24.00
2017-06-19T07:42:32.774Z,24.10
2017-06-19T07:45:00.723Z,24.20
2017-06-19T07:47:28.251Z,24.20
2017-06-19T07:49:55.770Z,24.20
2017-06-19T07:52:23.322Z,24.30
2017-06-19T07:54:51.249Z,24.50
2017-06-19T07:57:18.907Z,24.50
2017-06-19T07:59:46.439Z,24.60
2017-06-19T08:02:13.971Z,24.70
2017-06-19T08:04:41.936Z,25.00
2017-06-19T08:07:09.455Z,25.00
2017-06-19T08:09:36.988Z,25.10
2017-06-19T08:12:04.559Z,25.20
2017-06-19T08:14:32.115Z,25.30
2017-06-19T08:16:59.647Z,25.50
2017-06-19T08:19:27.600Z,25.70
2017-06-19T08:22:00.685Z,25.70
2017-06-19T08:24:28.239Z,25.70
2017-06-19T08:26:55.771Z,25.70
2017-06-19T08:29:23.285Z,25.80
2017-06-19T08:31:51.240Z,25.90
2017-06-19T08:34:18.783Z,25.90
2017-06-19T08:36:46.314Z,25.90
2017-06-19T08:39:13.891Z,26.10
2017-06-19T08:41:41.410Z,26.30
2017-06-19T08:44:09.343Z,26.40
2017-06-19T08:46:36.895Z,26.40
2017-06-19T08:49:04.422Z,26.40
2017-06-19T08:51:31.951Z,26.50
2017-06-19T08:53:59.903Z,26.60
2017-06-19T08:56:27.438Z,26.60
2017-06-19T08:58:54.961Z,26.60
2017-06-19T09:01:22.514Z,26.70
2017-06-19T09:03:50.438Z,26.90
2017-06-19T09:06:17.971Z,26.90
2017-06-19T09:08:45.519Z,27.10
2017-06-19T09:11:13.055Z,27.20
2017-06-19T09:13:40.966Z,27.30
2017-06-19T09:16:08.522Z,27.30
2017-06-19T09:18:36.055Z,27.40
2017-06-19T09:21:03.974Z,27.60
2017-06-19T09:23:31.532Z,27.60
2017-06-19T09:25:59.062Z,27.60
2017-06-19T09:28:26.582Z,27.60
2017-06-19T09:30:54.139Z,27.60
2017-06-19T09:33:21.667Z,27.80
2017-06-19T09:35:49.191Z,27.80
2017-06-19T09:38:16.734Z,27.90
2017-06-19T09:40:44.264Z,28.00
2017-06-19T09:43:11.782Z,28.20
2017-06-19T09:45:39.337Z,28.40
2017-06-19T09:48:06.823Z,28.40
2017-06-19T09:50:34.392Z,28.50
2017-06-19T09:53:01.977Z,28.70
2017-06-19T09:55:29.538Z,28.80
2017-06-19T09:57:57.087Z,28.90
2017-06-19T10:00:24.644Z,28.80
2017-06-19T10:02:52.170Z,28.70
2017-06-19T10:05:19.918Z,28.80
2017-06-19T10:07:47.868Z,28.90
2017-06-19T10:10:15.390Z,28.90
2017-06-19T10:12:42.918Z,28.90
2017-06-19T10:15:10.474Z,28.90
2017-06-19T10:17:38.003Z,28.90
2017-06-19T10:20:05.531Z,28.80
2017-06-19T10:22:33.092Z,28.90
2017-06-19T10:25:00.615Z,28.90
2017-06-19T10:27:28.147Z,29.00
2017-06-19T10:29:55.690Z,29.00
2017-06-19T10:32:23.220Z,29.00
2017-06-19T10:34:50.742Z,28.80
2017-06-19T10:37:18.688Z,29.00
2017-06-19T10:39:46.214Z,29.00
2017-06-19T10:42:13.748Z,29.10
2017-06-19T10:44:41.299Z,29.20
2017-06-19T10:47:08.827Z,29.20
2017-06-19T10:49:36.352Z,29.20
2017-06-19T10:52:03.899Z,29.20
2017-06-19T10:54:31.431Z,29.20
2017-06-19T10:56:59.355Z,29.40
2017-06-19T10:59:26.909Z,29.40
2017-06-19T11:01:54.439Z,29.50
2017-06-19T11:04:21.972Z,29.60
2017-06-19T11:06:49.526Z,29.70
2017-06-19T11:09:17.051Z,29.70
2017-06-19T11:11:44.579Z,29.70
2017-06-19T11:14:12.134Z,29.60
2017-06-19T11:16:40.061Z,29.60
2017-06-19T11:19:07.582Z,29.60
2017-06-19T11:21:35.135Z,29.50
2017-06-19T11:24:02.663Z,29.40
2017-06-19T11:26:30.198Z,29.20
2017-06-19T11:28:57.760Z,29.30
2017-06-19T11:31:25.286Z,29.30
2017-06-19T11:33:52.818Z,29.30
2017-06-19T11:36:20.767Z,29.30
2017-06-19T11:38:48.299Z,29.30
2017-06-19T11:41:15.827Z,29.40
2017-06-19T11:43:43.381Z,29.40
2017-06-19T11:46:11.304Z,29.20
2017-06-19T11:48:38.830Z,29.20
2017-06-19T11:51:06.385Z,29.20
2017-06-19T11:53:33.920Z,29.30
2017-06-19T11:56:01.448Z,29.40
2017-06-19T11:58:29.006Z,29.50
2017-06-19T12:00:56.534Z,29.60
2017-06-19T12:03:24.067Z,29.60
2017-06-19T12:05:52.059Z,29.70
2017-06-19T12:08:19.590Z,29.70
2017-06-19T12:10:47.111Z,29.70
2017-06-19T12:13:14.662Z,29.70
2017-06-19T12:15:42.205Z,29.70
2017-06-19T12:18:09.735Z,29.60
2017-06-19T12:20:37.679Z,29.70
2017-06-19T12:23:05.207Z,29.80
2017-06-19T12:25:32.731Z,29.70
2017-06-19T12:28:00.682Z,29.80
2017-06-19T12:30:28.204Z,29.80
2017-06-19T12:32:55.735Z,29.90
2017-06-19T12:35:23.282Z,30.00
2017-06-19T12:37:51.211Z,30.20
2017-06-19T12:40:18.772Z,30.20
2017-06-19T12:42:46.310Z,30.30
2017-06-19T12:45:13.839Z,30.30
2017-06-19T12:47:41.764Z,30.30
2017-06-19T12:50:09.316Z,30.30
2017-06-19T12:52:36.851Z,30.30
2017-06-19T12:55:04.383Z,30.30
2017-06-19T12:57:32.332Z,30.40
2017-06-19T12:59:59.854Z,30.40
2017-06-19T13:02:27.383Z,30.50
2017-06-19T13:04:54.934Z,30.70
2017-06-19T13:07:22.860Z,30.70
2017-06-19T13:09:50.395Z,30.70
2017-06-19T13:12:17.955Z,30.50
2017-06-19T13:14:45.483Z,30.60
2017-06-19T13:17:13.436Z,30.70
2017-06-19T13:19:40.995Z,30.70
2017-06-19T13:22:08.507Z,30.70
2017-06-19T13:24:36.054Z,30.70
2017-06-19T13:27:03.583Z,30.70
2017-06-19T13:29:31.220Z,30.70
2017-06-19T13:31:58.771Z,30.70
2017-06-19T13:34:26.299Z,30.70
2017-06-19T13:36:53.823Z,30.70
2017-06-19T13:39:21.379Z,30.80
2017-06-19T13:41:48.913Z,31.00
2017-06-19T13:44:16.442Z,31.10
2017-06-19T13:46:43.994Z,31.10
2017-06-19T13:49:11.551Z,31.20
2017-06-19T13:51:39.477Z,31.20
2017-06-19T13:54:07.034Z,31.20
2017-06-19T13:56:34.579Z,31.30
2017-06-19T13:59:02.127Z,31.40
2017-06-19T14:01:29.691Z,31.40
2017-06-19T14:03:57.200Z,31.40
2017-06-19T14:06:25.139Z,31.40
2017-06-19T14:08:52.669Z,31.50
2017-06-19T14:11:20.207Z,31.60
2017-06-19T14:13:47.755Z,31.60
2017-06-19T14:16:15.284Z,31.50
2017-06-19T14:18:42.831Z,31.40
2017-06-19T14:21:10.374Z,31.60
2017-06-19T14:23:37.907Z,31.70
2017-06-19T14:26:05.868Z,31.80
2017-06-19T14:28:33.395Z,31.80
2017-06-19T14:31:00.924Z,31.90
2017-06-19T14:33:28.484Z,32.00
2017-06-19T14:35:56.015Z,32.20
2017-06-19T14:38:23.541Z,32.30
2017-06-19T14:40:51.092Z,32.40
2017-06-19T14:43:18.619Z,32.70
2017-06-19T14:45:46.151Z,32.80
2017-06-19T14:48:13.701Z,32.80
2017-06-19T14:50:41.235Z,32.80
2017-06-19T14:53:08.754Z,32.70
2017-06-19T14:55:36.343Z,32.60
2017-06-19T14:58:03.875Z,32.80
2017-06-19T15:00:31.792Z,32.40
2017-06-19T15:02:59.347Z,32.50
2017-06-19T15:05:26.878Z,32.50
2017-06-19T15:07:54.481Z,32.50
2017-06-19T15:10:22.022Z,32.60
2017-06-19T15:12:49.550Z,32.90
2017-06-19T15:15:17.088Z,33.30
2017-06-19T15:17:44.647Z,33.50
2017-06-19T15:20:12.181Z,33.60
2017-06-19T15:22:39.711Z,33.50
2017-06-19T15:25:07.271Z,33.60
2017-06-19T15:27:34.798Z,33.80
2017-06-19T15:30:02.727Z,33.90
2017-06-19T15:32:30.295Z,33.90
2017-06-19T15:34:57.823Z,34.00
2017-06-19T15:37:25.316Z,34.10
2017-06-19T15:39:53.303Z,34.40
2017-06-19T15:42:20.835Z,34.40
2017-06-19T15:44:48.363Z,36.80
2017-06-19T15:47:15.918Z,40.00
2017-06-19T15:49:43.450Z,42.30
2017-06-19T15:52:10.976Z,43.80
2017-06-19T15:54:38.523Z,44.50
2017-06-19T15:57:06.050Z,45.10
2017-06-19T15:59:33.579Z,45.00
2017-06-19T16:02:01.235Z,44.90
2017-06-19T16:04:28.759Z,45.20
2017-06-19T16:06:56.288Z,44.60
2017-06-19T16:09:24.239Z,44.30
2017-06-19T16:11:57.573Z,44.30
2017-06-19T16:14:25.126Z,43.80
2017-06-19T16:16:52.650Z,43.70
2017-06-19T16:19:20.170Z,43.70
2017-06-19T16:21:47.726Z,43.30
2017-06-19T16:24:15.258Z,42.90
2017-06-19T16:26:43.192Z,42.30
2017-06-19T16:29:10.744Z,42.30
2017-06-19T16:31:38.279Z,42.20
2017-06-19T16:34:05.807Z,42.20
2017-06-19T16:36:33.366Z,41.40
2017-06-19T16:39:01.291Z,41.50
2017-06-19T16:41:28.832Z,41.50
2017-06-19T16:43:56.390Z,41.30
2017-06-19T16:46:23.920Z,41.50
2017-06-19T16:48:51.856Z,39.10
2017-06-19T16:51:19.413Z,39.10
2017-06-19T16:53:46.945Z,37.10
2017-06-19T16:56:14.479Z,35.50
2017-06-19T16:58:42.034Z,34.20
2017-06-19T17:01:09.571Z,33.50
2017-06-19T17:03:37.098Z,33.00
2017-06-19T17:06:04.653Z,32.50
2017-06-19T17:08:32.184Z,32.20
2017-06-19T17:11:00.233Z,31.80
2017-06-19T17:13:27.788Z,31.90
2017-06-19T17:15:55.315Z,31.70
2017-06-19T17:18:22.898Z,31.50
2017-06-19T17:20:50.538Z,31.40
2017-06-19T17:23:18.107Z,31.30
2017-06-19T17:25:45.632Z,31.10
2017-06-19T17:28:13.273Z,30.90
2017-06-19T17:30:41.234Z,30.80
2017-06-19T17:33:08.772Z,30.80
2017-06-19T17:35:36.425Z,30.80
2017-06-19T17:38:03.967Z,30.70
2017-06-19T17:40:31.502Z,30.70
2017-06-19T17:42:59.110Z,30.70
2017-06-19T17:45:27.670Z,30.70
2017-06-19T17:47:55.241Z,30.60
2017-06-19T17:50:23.219Z,30.60
2017-06-19T17:52:50.928Z,30.50
2017-06-19T17:55:19.229Z,30.30
2017-06-19T17:57:47.070Z,30.30
2017-06-19T18:00:15.166Z,30.20
2017-06-19T18:02:43.265Z,30.20
2017-06-19T18:05:11.592Z,30.10
2017-06-19T18:07:39.971Z,30.00
2017-06-19T18:10:08.435Z,30.10
2017-06-19T18:12:37.011Z,30.00
2017-06-19T18:15:05.503Z,30.00
2017-06-19T18:17:33.992Z,29.90
2017-06-19T18:20:02.387Z,29.80
2017-06-19T18:22:30.813Z,29.80
2017-06-19T18:24:59.669Z,29.70
2017-06-19T18:27:28.236Z,29.70
2017-06-19T18:29:56.723Z,29.70
2017-06-19T18:32:25.279Z,29.60
2017-06-19T18:37:31.372Z,29.40
2017-06-19T18:40:00.071Z,29.40
2017-06-19T18:42:28.584Z,29.30
2017-06-19T18:44:57.090Z,29.20
2017-06-19T18:47:26.132Z,29.10
2017-06-19T18:49:54.622Z,29.10
2017-06-19T18:52:23.185Z,29.00
2017-06-19T18:54:51.849Z,29.00
2017-06-19T18:57:20.792Z,28.90
2017-06-19T18:59:49.719Z,28.90
2017-06-19T19:02:18.347Z,28.90
2017-06-19T19:04:46.897Z,28.80
2017-06-19T19:07:15.407Z,28.70
2017-06-19T19:09:44.177Z,28.60
2017-06-19T19:12:13.100Z,28.50
2017-06-19T19:14:41.746Z,28.50
2017-06-19T19:17:10.790Z,28.40
2017-06-19T19:19:39.739Z,28.40
2017-06-19T19:22:08.664Z,28.40
2017-06-19T19:24:37.306Z,28.40
2017-06-19T19:27:05.821Z,28.30
2017-06-19T19:29:34.378Z,28.30
2017-06-19T19:32:04.031Z,28.20
2017-06-19T19:34:32.878Z,28.20
2017-06-19T19:37:02.206Z,28.20
2017-06-19T19:39:30.846Z,28.00
2017-06-19T19:41:59.407Z,28.00
2017-06-19T19:44:27.941Z,28.00
2017-06-19T19:46:57.075Z,27.80
2017-06-19T19:49:25.588Z,27.90
2017-06-19T19:51:54.134Z,27.80
2017-06-19T19:54:22.828Z,27.70
2017-06-19T19:56:51.337Z,27.60
2017-06-19T19:59:19.995Z,27.50
2017-06-19T20:01:48.655Z,27.40
2017-06-19T20:04:17.594Z,27.30
2017-06-19T20:06:46.164Z,27.30
2017-06-19T20:09:14.804Z,27.20
2017-06-19T20:11:43.357Z,27.20
2017-06-19T20:14:11.894Z,27.10
2017-06-19T20:16:41.024Z,27.00
2017-06-19T20:19:09.595Z,27.00
2017-06-19T20:21:38.127Z,26.90
2017-06-19T20:24:06.778Z,26.90
2017-06-19T20:26:35.450Z,26.80
2017-06-19T20:29:04.019Z,26.80
2017-06-19T20:31:33.068Z,26.60
2017-06-19T20:34:01.562Z,26.70
2017-06-19T20:36:30.073Z,26.50
2017-06-19T20:38:58.744Z,26.40
2017-06-19T20:41:27.278Z,26.40
2017-06-19T20:43:55.801Z,26.40
2017-06-19T20:46:24.681Z,26.30
2017-06-19T20:48:53.236Z,26.20
2017-06-19T20:51:21.753Z,26.10
2017-06-19T20:53:50.418Z,26.10
2017-06-19T20:56:18.943Z,26.10
2017-06-19T20:58:47.502Z,26.10
2017-06-19T21:01:16.102Z,26.10
2017-06-19T21:03:44.622Z,26.10
2017-06-19T21:06:13.416Z,26.00
2017-06-19T21:08:42.040Z,26.10
2017-06-19T21:11:10.512Z,26.00
2017-06-19T21:13:39.007Z,26.00
2017-06-19T21:16:07.693Z,26.00
2017-06-19T21:18:36.079Z,26.00
2017-06-19T21:21:04.465Z,25.90
2017-06-19T21:23:32.653Z,25.80
2017-06-19T21:26:00.229Z,25.70
2017-06-19T21:28:27.775Z,25.60
2017-06-19T21:30:55.339Z,25.70
2017-06-19T21:33:23.267Z,25.60
2017-06-19T21:35:50.816Z,25.60
2017-06-19T21:38:18.376Z,25.50
2017-06-19T21:40:45.907Z,25.40
2017-06-19T21:43:13.443Z,25.30
2017-06-19T21:45:41.400Z,25.00
2017-06-19T21:48:08.935Z,25.00
2017-06-19T21:50:36.463Z,24.90
2017-06-19T21:53:04.023Z,24.80
2017-06-19T21:55:31.556Z,24.80
2017-06-19T21:57:59.485Z,24.80
2017-06-19T22:00:27.040Z,24.80
2017-06-19T22:02:54.582Z,24.80
2017-06-19T22:05:22.111Z,24.70
2017-06-19T22:07:50.063Z,24.60
2017-06-19T22:10:17.591Z,24.70
2017-06-19T22:12:45.123Z,24.60
2017-06-19T22:15:12.682Z,24.50
2017-06-19T22:17:40.250Z,24.40
2017-06-19T22:20:08.158Z,24.20
2017-06-19T22:22:41.443Z,24.30
2017-06-19T22:25:08.967Z,24.10
2017-06-19T22:27:36.499Z,24.10
2017-06-19T22:30:04.451Z,24.10
2017-06-19T22:32:31.988Z,24.10
2017-06-19T22:34:59.510Z,24.00
2017-06-19T22:37:27.066Z,23.90
2017-06-19T22:39:54.999Z,23.80
2017-06-19T22:42:22.529Z,23.80
2017-06-19T22:44:50.083Z,23.70
2017-06-19T22:47:17.615Z,23.70
2017-06-19T22:49:45.142Z,23.70
2017-06-19T22:52:12.815Z,23.60
2017-06-19T22:54:40.368Z,23.50
2017-06-19T22:57:07.898Z,23.40
2017-06-19T22:59:35.431Z,23.30
2017-06-19T23:02:02.986Z,23.20
2017-06-19T23:04:30.519Z,23.10
2017-06-19T23:06:58.062Z,23.10
2017-06-19T23:09:25.612Z,23.00
2017-06-19T23:11:53.143Z,23.00
2017-06-19T23:14:20.679Z,22.90
2017-06-19T23:16:48.632Z,22.80
2017-06-19T23:19:16.163Z,22.90
2017-06-19T23:21:43.698Z,22.80
2017-06-19T23:24:11.255Z,22.80
2017-06-19T23:26:38.792Z,22.70
2017-06-19T23:29:06.720Z,22.70
2017-06-19T23:31:34.275Z,22.70
2017-06-19T23:34:01.803Z,22.70
2017-06-19T23:36:29.334Z,22.70
2017-06-19T23:38:57.287Z,22.60
2017-06-19T23:41:24.818Z,22.60
2017-06-19T23:43:52.355Z,22.60
2017-06-19T23:46:19.907Z,22.60
2017-06-19T23:48:47.438Z,22.60
2017-06-19T23:51:14.971Z,22.60
2017-06-19T23:53:42.527Z,22.60
2017-06-19T23:56:10.061Z,22.60
2017-06-19T23:58:37.599Z,22.60
